Private Wetterstation Sandau
Wetterdaten: Dienstag, 04.09.2012
Datum Zeit Temp. A. Feuchte A. Luftdruck Regen Wind Richtung Richtung Taupunkt Windchill
04.09.2012 00:01 13,2 C 83 % 1024,2 hPa 0,0 l/m 0,0 km/h (0 Bft) O-NO 67 10,4 C 13,2 C
04.09.2012 00:01 13,2 C 83 % 1024,2 hPa 0,0 l/m 0,0 km/h (0 Bft) O-NO 67 10,4 C 13,2 C
04.09.2012 00:06 13,1 C 83 % 1024,2 hPa 0,0 l/m 0,0 km/h (0 Bft) O-NO 67 10,3 C 13,1 C
04.09.2012 00:06 13,1 C 83 % 1024,2 hPa 0,0 l/m 0,0 km/h (0 Bft) O-NO 67 10,3 C 13,1 C
04.09.2012 00:11 13,1 C 84 % 1024,0 hPa 0,0 l/m 0,0 km/h (0 Bft) O-NO 67 10,5 C 13,1 C
04.09.2012 00:11 13,1 C 84 % 1024,0 hPa 0,0 l/m 0,0 km/h (0 Bft) O-NO 67 10,5 C 13,1 C
04.09.2012 00:16 12,9 C 84 % 1024,1 hPa 0,0 l/m 0,0 km/h (0 Bft) O-NO 67 10,3 C 12,9 C
04.09.2012 00:16 12,9 C 84 % 1024,1 hPa 0,0 l/m 0,0 km/h (0 Bft) O-NO 67 10,3 C 12,9 C
04.09.2012 00:21 12,9 C 84 % 1024,1 hPa 0,0 l/m 0,0 km/h (0 Bft) O-NO 67 10,3 C 12,9 C
04.09.2012 00:21 12,9 C 84 % 1024,1 hPa 0,0 l/m 0,0 km/h (0 Bft) O-NO 67 10,3 C 12,9 C
04.09.2012 00:26 12,9 C 85 % 1024,1 hPa 0,0 l/m 0,0 km/h (0 Bft) O-NO 67 10,4 C 12,9 C
04.09.2012 00:26 12,9 C 85 % 1024,1 hPa 0,0 l/m 0,0 km/h (0 Bft) O-NO 67 10,4 C 12,9 C
04.09.2012 00:31 13,0 C 85 % 1024,2 hPa 0,0 l/m 0,0 km/h (0 Bft) O-NO 67 10,5 C 13,0 C
04.09.2012 00:31 13,0 C 85 % 1024,2 hPa 0,0 l/m 0,0 km/h (0 Bft) O-NO 67 10,5 C 13,0 C
04.09.2012 00:36 13,0 C 85 % 1024,2 hPa 0,0 l/m 0,0 km/h (0 Bft) O-NO 67 10,5 C 13,0 C
04.09.2012 00:36 13,0 C 85 % 1024,2 hPa 0,0 l/m 0,0 km/h (0 Bft) O-NO 67 10,5 C 13,0 C
04.09.2012 00:41 13,0 C 86 % 1024,1 hPa 0,0 l/m 0,0 km/h (0 Bft) O-NO 67 10,7 C 13,0 C
04.09.2012 00:41 13,0 C 86 % 1024,1 hPa 0,0 l/m 0,0 km/h (0 Bft) O-NO 67 10,7 C 13,0 C
04.09.2012 00:46 12,9 C 86 % 1024,3 hPa 0,0 l/m 0,0 km/h (0 Bft) O-NO 67 10,6 C 12,9 C
04.09.2012 00:46 12,9 C 86 % 1024,3 hPa 0,0 l/m 0,0 km/h (0 Bft) O-NO 67 10,6 C 12,9 C
04.09.2012 00:51 12,9 C 86 % 1024,2 hPa 0,0 l/m 0,0 km/h (0 Bft) O-NO 67 10,6 C 12,9 C
04.09.2012 00:51 12,9 C 86 % 1024,2 hPa 0,0 l/m 0,0 km/h (0 Bft) O-NO 67 10,6 C 12,9 C
04.09.2012 00:56 12,8 C 85 % 1024,2 hPa 0,0 l/m 0,0 km/h (0 Bft) O-NO 67 10,3 C 12,8 C
04.09.2012 00:56 12,8 C 85 % 1024,2 hPa 0,0 l/m 0,0 km/h (0 Bft) O-NO 67 10,3 C 12,8 C
04.09.2012 01:01 12,7 C 85 % 1024,3 hPa 0,0 l/m 0,0 km/h (0 Bft) O-NO 67 10,2 C 12,7 C
04.09.2012 01:01 12,7 C 85 % 1024,3 hPa 0,0 l/m 0,0 km/h (0 Bft) O-NO 67 10,2 C 12,7 C
04.09.2012 01:06 12,5 C 85 % 1024,3 hPa 0,0 l/m 0,0 km/h (0 Bft) O-NO 67 10,0 C 12,5 C
04.09.2012 01:06 12,5 C 85 % 1024,3 hPa 0,0 l/m 0,0 km/h (0 Bft) O-NO 67 10,0 C 12,5 C
04.09.2012 01:11 12,5 C 85 % 1024,3 hPa 0,0 l/m 0,0 km/h (0 Bft) O-NO 67 10,0 C 12,5 C
04.09.2012 01:11 12,5 C 85 % 1024,3 hPa 0,0 l/m 0,0 km/h (0 Bft) O-NO 67 10,0 C 12,5 C
04.09.2012 01:16 12,4 C 85 % 1024,2 hPa 0,0 l/m 0,0 km/h (0 Bft) O-NO 67 9,9 C 12,4 C
04.09.2012 01:16 12,4 C 85 % 1024,2 hPa 0,0 l/m 0,0 km/h (0 Bft) O-NO 67 9,9 C 12,4 C
04.09.2012 01:21 12,5 C 86 % 1024,2 hPa 0,0 l/m 0,0 km/h (0 Bft) SO 135 10,2 C 12,5 C
04.09.2012 01:21 12,5 C 86 % 1024,2 hPa 0,0 l/m 0,0 km/h (0 Bft) SO 135 10,2 C 12,5 C
04.09.2012 01:26 12,5 C 86 % 1024,1 hPa 0,0 l/m 0,0 km/h (0 Bft) SO 135 10,2 C 12,5 C
04.09.2012 01:26 12,5 C 86 % 1024,1 hPa 0,0 l/m 0,0 km/h (0 Bft) SO 135 10,2 C 12,5 C
04.09.2012 01:31 12,6 C 86 % 1024,0 hPa 0,0 l/m 0,0 km/h (0 Bft) SO 135 10,3 C 12,6 C
04.09.2012 01:31 12,6 C 86 % 1024,0 hPa 0,0 l/m 0,0 km/h (0 Bft) SO 135 10,3 C 12,6 C
04.09.2012 01:36 12,6 C 86 % 1024,0 hPa 0,0 l/m 0,0 km/h (0 Bft) SO 135 10,3 C 12,6 C
04.09.2012 01:36 12,6 C 86 % 1024,0 hPa 0,0 l/m 0,0 km/h (0 Bft) SO 135 10,3 C 12,6 C
04.09.2012 01:41 12,5 C 86 % 1024,0 hPa 0,0 l/m 0,0 km/h (0 Bft) SO 135 10,2 C 12,5 C
04.09.2012 01:41 12,5 C 86 % 1024,0 hPa 0,0 l/m 0,0 km/h (0 Bft) SO 135 10,2 C 12,5 C
04.09.2012 01:46 12,4 C 86 % 1024,0 hPa 0,0 l/m 0,0 km/h (0 Bft) SO 135 10,1 C 12,4 C
04.09.2012 01:46 12,4 C 86 % 1024,0 hPa 0,0 l/m 0,0 km/h (0 Bft) SO 135 10,1 C 12,4 C
04.09.2012 01:51 12,4 C 86 % 1024,0 hPa 0,0 l/m 0,0 km/h (0 Bft) SO 135 10,1 C 12,4 C
04.09.2012 01:51 12,4 C 86 % 1024,0 hPa 0,0 l/m 0,0 km/h (0 Bft) SO 135 10,1 C 12,4 C
04.09.2012 01:56 12,4 C 86 % 1024,1 hPa 0,0 l/m 2,5 km/h (1 Bft) NW 315 10,1 C 12,4 C
04.09.2012 01:56 12,4 C 86 % 1024,1 hPa 0,0 l/m 2,5 km/h (1 Bft) NW 315 10,1 C 12,4 C
04.09.2012 02:01 12,4 C 86 % 1024,1 hPa 0,0 l/m 0,0 km/h (0 Bft) W-NW 292 10,1 C 12,4 C
04.09.2012 02:01 12,4 C 86 % 1024,1 hPa 0,0 l/m 0,0 km/h (0 Bft) W-NW 292 10,1 C 12,4 C
04.09.2012 02:06 12,4 C 86 % 1024,1 hPa 0,0 l/m 0,0 km/h (0 Bft) W-NW 292 10,1 C 12,4 C
04.09.2012 02:06 12,4 C 86 % 1024,1 hPa 0,0 l/m 0,0 km/h (0 Bft) W-NW 292 10,1 C 12,4 C
04.09.2012 02:11 12,4 C 86 % 1024,1 hPa 0,0 l/m 0,0 km/h (0 Bft) W-NW 292 10,1 C 12,4 C
04.09.2012 02:11 12,4 C 86 % 1024,1 hPa 0,0 l/m 0,0 km/h (0 Bft) W-NW 292 10,1 C 12,4 C
04.09.2012 02:16 12,4 C 86 % 1024,0 hPa 0,0 l/m 1,1 km/h (1 Bft) W 270 10,1 C 12,4 C
04.09.2012 02:16 12,4 C 86 % 1024,0 hPa 0,0 l/m 1,1 km/h (1 Bft) W 270 10,1 C 12,4 C
04.09.2012 02:21 12,4 C 87 % 1024,0 hPa 0,0 l/m 0,0 km/h (0 Bft) W 270 10,3 C 12,4 C
04.09.2012 02:21 12,4 C 87 % 1024,0 hPa 0,0 l/m 0,0 km/h (0 Bft) W 270 10,3 C 12,4 C
04.09.2012 02:26 12,4 C 87 % 1024,1 hPa 0,0 l/m 1,1 km/h (1 Bft) W 270 10,3 C 12,4 C
04.09.2012 02:26 12,4 C 87 % 1024,1 hPa 0,0 l/m 1,1 km/h (1 Bft) W 270 10,3 C 12,4 C
04.09.2012 02:31 12,5 C 87 % 1024,0 hPa 0,0 l/m 0,0 km/h (0 Bft) W 270 10,4 C 12,5 C
04.09.2012 02:31 12,5 C 87 % 1024,0 hPa 0,0 l/m 0,0 km/h (0 Bft) W 270 10,4 C 12,5 C
04.09.2012 02:36 12,5 C 87 % 1024,1 hPa 0,0 l/m 0,0 km/h (0 Bft) W 270 10,4 C 12,5 C
04.09.2012 02:36 12,5 C 87 % 1024,1 hPa 0,0 l/m 0,0 km/h (0 Bft) W 270 10,4 C 12,5 C
04.09.2012 02:41 12,6 C 87 % 1024,1 hPa 0,0 l/m 0,0 km/h (0 Bft) W 270 10,5 C 12,6 C
04.09.2012 02:41 12,6 C 87 % 1024,1 hPa 0,0 l/m 0,0 km/h (0 Bft) W 270 10,5 C 12,6 C
04.09.2012 02:46 12,7 C 87 % 1024,0 hPa 0,0 l/m 0,0 km/h (0 Bft) W 270 10,6 C 12,7 C
04.09.2012 02:46 12,7 C 87 % 1024,0 hPa 0,0 l/m 0,0 km/h (0 Bft) W 270 10,6 C 12,7 C
04.09.2012 02:51 12,7 C 87 % 1024,0 hPa 0,0 l/m 0,0 km/h (0 Bft) W 270 10,6 C 12,7 C
04.09.2012 02:51 12,7 C 87 % 1024,0 hPa 0,0 l/m 0,0 km/h (0 Bft) W 270 10,6 C 12,7 C
04.09.2012 02:56 12,8 C 87 % 1024,0 hPa 0,0 l/m 0,0 km/h (0 Bft) W 270 10,7 C 12,8 C
04.09.2012 02:56 12,8 C 87 % 1024,0 hPa 0,0 l/m 0,0 km/h (0 Bft) W 270 10,7 C 12,8 C
04.09.2012 03:01 12,8 C 87 % 1024,0 hPa 0,0 l/m 0,0 km/h (0 Bft) W 270 10,7 C 12,8 C
04.09.2012 03:01 12,8 C 87 % 1024,0 hPa 0,0 l/m 0,0 km/h (0 Bft) W 270 10,7 C 12,8 C
04.09.2012 03:06 12,8 C 87 % 1023,9 hPa 0,0 l/m 0,0 km/h (0 Bft) W 270 10,7 C 12,8 C
04.09.2012 03:06 12,8 C 87 % 1023,9 hPa 0,0 l/m 0,0 km/h (0 Bft) W 270 10,7 C 12,8 C
04.09.2012 03:11 12,8 C 87 % 1023,9 hPa 0,0 l/m 0,0 km/h (0 Bft) W 270 10,7 C 12,8 C
04.09.2012 03:11 12,8 C 87 % 1023,9 hPa 0,0 l/m 0,0 km/h (0 Bft) W 270 10,7 C 12,8 C
04.09.2012 03:16 12,8 C 87 % 1023,7 hPa 0,0 l/m 0,0 km/h (0 Bft) W 270 10,7 C 12,8 C
04.09.2012 03:16 12,8 C 87 % 1023,7 hPa 0,0 l/m 0,0 km/h (0 Bft) W 270 10,7 C 12,8 C
04.09.2012 03:21 12,8 C 87 % 1023,7 hPa 0,0 l/m 0,0 km/h (0 Bft) W 270 10,7 C 12,8 C
04.09.2012 03:21 12,8 C 87 % 1023,7 hPa 0,0 l/m 0,0 km/h (0 Bft) W 270 10,7 C 12,8 C
04.09.2012 03:26 12,8 C 88 % 1023,7 hPa 0,0 l/m 0,0 km/h (0 Bft) W 270 10,9 C 12,8 C
04.09.2012 03:26 12,8 C 88 % 1023,7 hPa 0,0 l/m 0,0 km/h (0 Bft) W 270 10,9 C 12,8 C
04.09.2012 03:31 12,8 C 88 % 1023,7 hPa 0,0 l/m 0,0 km/h (0 Bft) W-SW 247 10,9 C 12,8 C
04.09.2012 03:31 12,8 C 88 % 1023,7 hPa 0,0 l/m 0,0 km/h (0 Bft) W-SW 247 10,9 C 12,8 C
04.09.2012 03:36 12,9 C 88 % 1023,7 hPa 0,0 l/m 0,0 km/h (0 Bft) W-SW 247 11,0 C 12,9 C
04.09.2012 03:36 12,9 C 88 % 1023,7 hPa 0,0 l/m 0,0 km/h (0 Bft) W-SW 247 11,0 C 12,9 C
04.09.2012 03:41 12,9 C 88 % 1023,7 hPa 0,0 l/m 0,0 km/h (0 Bft) W-SW 247 11,0 C 12,9 C
04.09.2012 03:41 12,9 C 88 % 1023,7 hPa 0,0 l/m 0,0 km/h (0 Bft) W-SW 247 11,0 C 12,9 C
04.09.2012 03:46 12,9 C 88 % 1023,8 hPa 0,0 l/m 0,0 km/h (0 Bft) W-SW 247 11,0 C 12,9 C
04.09.2012 03:46 12,9 C 88 % 1023,8 hPa 0,0 l/m 0,0 km/h (0 Bft) W-SW 247 11,0 C 12,9 C
04.09.2012 03:51 13,0 C 88 % 1023,7 hPa 0,0 l/m 0,0 km/h (0 Bft) W-SW 247 11,1 C 13,0 C
04.09.2012 03:51 13,0 C 88 % 1023,7 hPa 0,0 l/m 0,0 km/h (0 Bft) W-SW 247 11,1 C 13,0 C
04.09.2012 03:56 13,1 C 88 % 1023,6 hPa 0,0 l/m 3,2 km/h (1 Bft) SO 135 11,2 C 13,1 C
04.09.2012 03:56 13,1 C 88 % 1023,6 hPa 0,0 l/m 3,2 km/h (1 Bft) SO 135 11,2 C 13,1 C
04.09.2012 04:01 13,1 C 88 % 1023,6 hPa 0,0 l/m 0,0 km/h (0 Bft) S-SW 202 11,2 C 13,1 C
04.09.2012 04:01 13,1 C 88 % 1023,6 hPa 0,0 l/m 0,0 km/h (0 Bft) S-SW 202 11,2 C 13,1 C
04.09.2012 04:06 13,2 C 88 % 1023,6 hPa 0,0 l/m 3,2 km/h (1 Bft) S-SW 202 11,3 C 13,2 C
04.09.2012 04:06 13,2 C 88 % 1023,6 hPa 0,0 l/m 3,2 km/h (1 Bft) S-SW 202 11,3 C 13,2 C
04.09.2012 04:11 13,2 C 88 % 1023,4 hPa 0,0 l/m 0,0 km/h (0 Bft) SW 225 11,3 C 13,2 C
04.09.2012 04:11 13,2 C 88 % 1023,4 hPa 0,0 l/m 0,0 km/h (0 Bft) SW 225 11,3 C 13,2 C
04.09.2012 04:16 13,3 C 88 % 1023,5 hPa 0,0 l/m 4,7 km/h (1 Bft) W-NW 292 11,4 C 13,3 C
04.09.2012 04:16 13,3 C 88 % 1023,5 hPa 0,0 l/m 4,7 km/h (1 Bft) W-NW 292 11,4 C 13,3 C
04.09.2012 04:21 13,3 C 88 % 1023,5 hPa 0,0 l/m 5,4 km/h (1 Bft) W-NW 292 11,4 C 13,3 C
04.09.2012 04:21 13,3 C 88 % 1023,5 hPa 0,0 l/m 5,4 km/h (1 Bft) W-NW 292 11,4 C 13,3 C
04.09.2012 04:26 13,3 C 88 % 1023,5 hPa 0,0 l/m 0,0 km/h (0 Bft) NW 315 11,4 C 13,3 C
04.09.2012 04:26 13,3 C 88 % 1023,5 hPa 0,0 l/m 0,0 km/h (0 Bft) NW 315 11,4 C 13,3 C
04.09.2012 04:31 13,3 C 88 % 1023,4 hPa 0,0 l/m 0,0 km/h (0 Bft) W 270 11,4 C 13,3 C
04.09.2012 04:31 13,3 C 88 % 1023,4 hPa 0,0 l/m 0,0 km/h (0 Bft) W 270 11,4 C 13,3 C
04.09.2012 04:36 13,2 C 88 % 1023,5 hPa 0,0 l/m 2,2 km/h (1 Bft) W-NW 292 11,3 C 13,2 C
04.09.2012 04:36 13,2 C 88 % 1023,5 hPa 0,0 l/m 2,2 km/h (1 Bft) W-NW 292 11,3 C 13,2 C
04.09.2012 04:41 13,2 C 88 % 1023,4 hPa 0,0 l/m 0,0 km/h (0 Bft) W-NW 292 11,3 C 13,2 C
04.09.2012 04:41 13,2 C 88 % 1023,4 hPa 0,0 l/m 0,0 km/h (0 Bft) W-NW 292 11,3 C 13,2 C
04.09.2012 04:46 13,1 C 88 % 1023,6 hPa 0,0 l/m 0,0 km/h (0 Bft) W 270 11,2 C 13,1 C
04.09.2012 04:46 13,1 C 88 % 1023,6 hPa 0,0 l/m 0,0 km/h (0 Bft) W 270 11,2 C 13,1 C
04.09.2012 04:51 13,0 C 88 % 1023,5 hPa 0,0 l/m 1,1 km/h (1 Bft) W-NW 292 11,1 C 13,0 C
04.09.2012 04:51 13,0 C 88 % 1023,5 hPa 0,0 l/m 1,1 km/h (1 Bft) W-NW 292 11,1 C 13,0 C
04.09.2012 04:56 12,9 C 88 % 1023,5 hPa 0,0 l/m 2,2 km/h (1 Bft) W-NW 292 11,0 C 12,9 C
04.09.2012 04:56 12,9 C 88 % 1023,5 hPa 0,0 l/m 2,2 km/h (1 Bft) W-NW 292 11,0 C 12,9 C
04.09.2012 05:01 12,9 C 88 % 1023,5 hPa 0,0 l/m 0,0 km/h (0 Bft) W-NW 292 11,0 C 12,9 C
04.09.2012 05:01 12,9 C 88 % 1023,5 hPa 0,0 l/m 0,0 km/h (0 Bft) W-NW 292 11,0 C 12,9 C
04.09.2012 05:06 12,8 C 88 % 1023,4 hPa 0,0 l/m 3,2 km/h (1 Bft) W-NW 292 10,9 C 12,8 C
04.09.2012 05:06 12,8 C 88 % 1023,4 hPa 0,0 l/m 3,2 km/h (1 Bft) W-NW 292 10,9 C 12,8 C
04.09.2012 05:11 12,6 C 88 % 1023,4 hPa 0,0 l/m 0,0 km/h (0 Bft) W-NW 292 10,7 C 12,6 C
04.09.2012 05:11 12,6 C 88 % 1023,4 hPa 0,0 l/m 0,0 km/h (0 Bft) W-NW 292 10,7 C 12,6 C
04.09.2012 05:16 12,6 C 88 % 1023,4 hPa 0,0 l/m 0,0 km/h (0 Bft) W-NW 292 10,7 C 12,6 C
04.09.2012 05:16 12,6 C 88 % 1023,4 hPa 0,0 l/m 0,0 km/h (0 Bft) W-NW 292 10,7 C 12,6 C
04.09.2012 05:21 12,5 C 88 % 1023,3 hPa 0,0 l/m 0,0 km/h (0 Bft) W-NW 292 10,6 C 12,5 C
04.09.2012 05:21 12,5 C 88 % 1023,3 hPa 0,0 l/m 0,0 km/h (0 Bft) W-NW 292 10,6 C 12,5 C
04.09.2012 05:26 12,4 C 88 % 1023,3 hPa 0,0 l/m 1,8 km/h (1 Bft) W-NW 292 10,5 C 12,4 C
04.09.2012 05:26 12,4 C 88 % 1023,3 hPa 0,0 l/m 1,8 km/h (1 Bft) W-NW 292 10,5 C 12,4 C
04.09.2012 05:31 12,4 C 89 % 1023,3 hPa 0,0 l/m 1,8 km/h (1 Bft) W-NW 292 10,6 C 12,4 C
04.09.2012 05:31 12,4 C 89 % 1023,3 hPa 0,0 l/m 1,8 km/h (1 Bft) W-NW 292 10,6 C 12,4 C
04.09.2012 05:36 12,4 C 89 % 1023,4 hPa 0,0 l/m 0,0 km/h (0 Bft) W-NW 292 10,6 C 12,4 C
04.09.2012 05:36 12,4 C 89 % 1023,4 hPa 0,0 l/m 0,0 km/h (0 Bft) W-NW 292 10,6 C 12,4 C
04.09.2012 05:41 12,4 C 89 % 1023,4 hPa 0,0 l/m 5,0 km/h (1 Bft) NW 315 10,6 C 12,4 C
04.09.2012 05:41 12,4 C 89 % 1023,4 hPa 0,0 l/m 5,0 km/h (1 Bft) NW 315 10,6 C 12,4 C
04.09.2012 05:46 12,5 C 89 % 1023,5 hPa 0,0 l/m 2,5 km/h (1 Bft) NW 315 10,7 C 12,5 C
04.09.2012 05:46 12,5 C 89 % 1023,5 hPa 0,0 l/m 2,5 km/h (1 Bft) NW 315 10,7 C 12,5 C
04.09.2012 05:51 12,5 C 89 % 1023,4 hPa 0,0 l/m 4,3 km/h (1 Bft) N-NW 337 10,7 C 12,5 C
04.09.2012 05:51 12,5 C 89 % 1023,4 hPa 0,0 l/m 4,3 km/h (1 Bft) N-NW 337 10,7 C 12,5 C
04.09.2012 05:56 12,5 C 89 % 1023,3 hPa 0,0 l/m 0,0 km/h (0 Bft) NW 315 10,7 C 12,5 C
04.09.2012 05:56 12,5 C 89 % 1023,3 hPa 0,0 l/m 0,0 km/h (0 Bft) NW 315 10,7 C 12,5 C
04.09.2012 06:01 12,5 C 89 % 1023,2 hPa 0,0 l/m 0,0 km/h (0 Bft) NW 315 10,7 C 12,5 C
04.09.2012 06:01 12,5 C 89 % 1023,2 hPa 0,0 l/m 0,0 km/h (0 Bft) NW 315 10,7 C 12,5 C
04.09.2012 06:06 12,5 C 89 % 1023,2 hPa 0,0 l/m 0,0 km/h (0 Bft) NW 315 10,7 C 12,5 C
04.09.2012 06:06 12,5 C 89 % 1023,2 hPa 0,0 l/m 0,0 km/h (0 Bft) NW 315 10,7 C 12,5 C
04.09.2012 06:11 12,5 C 89 % 1023,3 hPa 0,0 l/m 0,0 km/h (0 Bft) NW 315 10,7 C 12,5 C
04.09.2012 06:11 12,5 C 89 % 1023,3 hPa 0,0 l/m 0,0 km/h (0 Bft) NW 315 10,7 C 12,5 C
04.09.2012 06:16 12,5 C 89 % 1023,4 hPa 0,0 l/m 3,2 km/h (1 Bft) N-NW 337 10,7 C 12,5 C
04.09.2012 06:16 12,5 C 89 % 1023,4 hPa 0,0 l/m 3,2 km/h (1 Bft) N-NW 337 10,7 C 12,5 C
04.09.2012 06:21 12,5 C 89 % 1023,3 hPa 0,0 l/m 0,0 km/h (0 Bft) N-NW 337 10,7 C 12,5 C
04.09.2012 06:21 12,5 C 89 % 1023,3 hPa 0,0 l/m 0,0 km/h (0 Bft) N-NW 337 10,7 C 12,5 C
04.09.2012 06:26 12,5 C 89 % 1023,5 hPa 0,0 l/m 0,0 km/h (0 Bft) NW 315 10,7 C 12,5 C
04.09.2012 06:26 12,5 C 89 % 1023,5 hPa 0,0 l/m 0,0 km/h (0 Bft) NW 315 10,7 C 12,5 C
04.09.2012 06:31 12,4 C 89 % 1023,4 hPa 0,0 l/m 2,9 km/h (1 Bft) W-NW 292 10,6 C 12,4 C
04.09.2012 06:31 12,4 C 89 % 1023,4 hPa 0,0 l/m 2,9 km/h (1 Bft) W-NW 292 10,6 C 12,4 C
04.09.2012 06:36 12,4 C 89 % 1023,5 hPa 0,0 l/m 0,0 km/h (0 Bft) W-NW 292 10,6 C 12,4 C
04.09.2012 06:36 12,4 C 89 % 1023,5 hPa 0,0 l/m 0,0 km/h (0 Bft) W-NW 292 10,6 C 12,4 C
04.09.2012 06:41 12,4 C 89 % 1023,5 hPa 0,0 l/m 1,8 km/h (1 Bft) W-NW 292 10,6 C 12,4 C
04.09.2012 06:41 12,4 C 89 % 1023,5 hPa 0,0 l/m 1,8 km/h (1 Bft) W-NW 292 10,6 C 12,4 C
04.09.2012 06:46 12,3 C 89 % 1023,5 hPa 0,0 l/m 0,0 km/h (0 Bft) W-NW 292 10,5 C 12,3 C
04.09.2012 06:46 12,3 C 89 % 1023,5 hPa 0,0 l/m 0,0 km/h (0 Bft) W-NW 292 10,5 C 12,3 C
04.09.2012 06:51 12,3 C 89 % 1023,6 hPa 0,0 l/m 0,0 km/h (0 Bft) W-NW 292 10,5 C 12,3 C
04.09.2012 06:51 12,3 C 89 % 1023,6 hPa 0,0 l/m 0,0 km/h (0 Bft) W-NW 292 10,5 C 12,3 C
04.09.2012 06:56 12,4 C 89 % 1023,6 hPa 0,0 l/m 0,0 km/h (0 Bft) W-NW 292 10,6 C 12,4 C
04.09.2012 06:56 12,4 C 89 % 1023,6 hPa 0,0 l/m 0,0 km/h (0 Bft) W-NW 292 10,6 C 12,4 C
04.09.2012 07:01 12,4 C 89 % 1023,5 hPa 0,0 l/m 0,0 km/h (0 Bft) W-NW 292 10,6 C 12,4 C
04.09.2012 07:01 12,4 C 89 % 1023,5 hPa 0,0 l/m 0,0 km/h (0 Bft) W-NW 292 10,6 C 12,4 C
04.09.2012 07:06 12,5 C 89 % 1023,6 hPa 0,0 l/m 0,0 km/h (0 Bft) W-NW 292 10,7 C 12,5 C
04.09.2012 07:06 12,5 C 89 % 1023,6 hPa 0,0 l/m 0,0 km/h (0 Bft) W-NW 292 10,7 C 12,5 C
04.09.2012 07:11 12,6 C 90 % 1023,4 hPa 0,0 l/m 1,1 km/h (1 Bft) NW 315 11,0 C 12,6 C
04.09.2012 07:11 12,6 C 90 % 1023,4 hPa 0,0 l/m 1,1 km/h (1 Bft) NW 315 11,0 C 12,6 C
04.09.2012 07:16 12,6 C 90 % 1023,5 hPa 0,0 l/m 2,5 km/h (1 Bft) NW 315 11,0 C 12,6 C
04.09.2012 07:16 12,6 C 90 % 1023,5 hPa 0,0 l/m 2,5 km/h (1 Bft) NW 315 11,0 C 12,6 C
04.09.2012 07:21 12,9 C 90 % 1023,5 hPa 0,0 l/m 0,0 km/h (0 Bft) NW 315 11,3 C 12,9 C
04.09.2012 07:21 12,9 C 90 % 1023,5 hPa 0,0 l/m 0,0 km/h (0 Bft) NW 315 11,3 C 12,9 C
04.09.2012 07:26 12,9 C 90 % 1023,5 hPa 0,0 l/m 0,0 km/h (0 Bft) NW 315 11,3 C 12,9 C
04.09.2012 07:26 12,9 C 90 % 1023,5 hPa 0,0 l/m 0,0 km/h (0 Bft) NW 315 11,3 C 12,9 C
04.09.2012 07:31 13,0 C 89 % 1023,6 hPa 0,0 l/m 1,4 km/h (1 Bft) NW 315 11,2 C 13,0 C
04.09.2012 07:31 13,0 C 89 % 1023,6 hPa 0,0 l/m 1,4 km/h (1 Bft) NW 315 11,2 C 13,0 C
04.09.2012 07:36 13,1 C 89 % 1023,6 hPa 0,0 l/m 0,0 km/h (0 Bft) NW 315 11,3 C 13,1 C
04.09.2012 07:36 13,1 C 89 % 1023,6 hPa 0,0 l/m 0,0 km/h (0 Bft) NW 315 11,3 C 13,1 C
04.09.2012 07:41 13,1 C 89 % 1023,6 hPa 0,0 l/m 0,0 km/h (0 Bft) NW 315 11,3 C 13,1 C
04.09.2012 07:41 13,1 C 89 % 1023,6 hPa 0,0 l/m 0,0 km/h (0 Bft) NW 315 11,3 C 13,1 C
04.09.2012 07:46 13,2 C 89 % 1023,7 hPa 0,0 l/m 1,4 km/h (1 Bft) NW 315 11,4 C 13,2 C
04.09.2012 07:46 13,2 C 89 % 1023,7 hPa 0,0 l/m 1,4 km/h (1 Bft) NW 315 11,4 C 13,2 C
04.09.2012 07:51 13,3 C 88 % 1023,8 hPa 0,0 l/m 0,0 km/h (0 Bft) NW 315 11,4 C 13,3 C
04.09.2012 07:51 13,3 C 88 % 1023,8 hPa 0,0 l/m 0,0 km/h (0 Bft) NW 315 11,4 C 13,3 C
04.09.2012 07:56 13,4 C 88 % 1023,9 hPa 0,0 l/m 1,4 km/h (1 Bft) W 270 11,5 C 13,4 C
04.09.2012 07:56 13,4 C 88 % 1023,9 hPa 0,0 l/m 1,4 km/h (1 Bft) W 270 11,5 C 13,4 C
04.09.2012 08:01 13,5 C 88 % 1023,8 hPa 0,0 l/m 0,0 km/h (0 Bft) W 270 11,6 C 13,5 C
04.09.2012 08:01 13,5 C 88 % 1023,8 hPa 0,0 l/m 0,0 km/h (0 Bft) W 270 11,6 C 13,5 C
04.09.2012 08:06 13,6 C 88 % 1023,9 hPa 0,0 l/m 1,4 km/h (1 Bft) W 270 11,6 C 13,6 C
04.09.2012 08:06 13,6 C 88 % 1023,9 hPa 0,0 l/m 1,4 km/h (1 Bft) W 270 11,6 C 13,6 C
04.09.2012 08:11 13,7 C 88 % 1023,8 hPa 0,0 l/m 0,0 km/h (0 Bft) W 270 11,7 C 13,7 C
04.09.2012 08:11 13,7 C 88 % 1023,8 hPa 0,0 l/m 0,0 km/h (0 Bft) W 270 11,7 C 13,7 C
04.09.2012 08:16 13,9 C 88 % 1023,9 hPa 0,0 l/m 3,2 km/h (1 Bft) W 270 11,9 C 13,9 C
04.09.2012 08:16 13,9 C 88 % 1023,9 hPa 0,0 l/m 3,2 km/h (1 Bft) W 270 11,9 C 13,9 C
04.09.2012 08:21 14,2 C 87 % 1023,8 hPa 0,0 l/m 0,0 km/h (0 Bft) SW 225 12,1 C 14,2 C
04.09.2012 08:21 14,2 C 87 % 1023,8 hPa 0,0 l/m 0,0 km/h (0 Bft) SW 225 12,1 C 14,2 C
04.09.2012 08:26 14,3 C 87 % 1023,7 hPa 0,0 l/m 0,0 km/h (0 Bft) SW 225 12,2 C 14,3 C
04.09.2012 08:26 14,3 C 87 % 1023,7 hPa 0,0 l/m 0,0 km/h (0 Bft) SW 225 12,2 C 14,3 C
04.09.2012 08:31 14,4 C 86 % 1023,7 hPa 0,0 l/m 0,0 km/h (0 Bft) W 270 12,1 C 14,4 C
04.09.2012 08:31 14,4 C 86 % 1023,7 hPa 0,0 l/m 0,0 km/h (0 Bft) W 270 12,1 C 14,4 C
04.09.2012 08:36 14,6 C 86 % 1023,7 hPa 0,0 l/m 2,2 km/h (1 Bft) W 270 12,3 C 14,6 C
04.09.2012 08:36 14,6 C 86 % 1023,7 hPa 0,0 l/m 2,2 km/h (1 Bft) W 270 12,3 C 14,6 C
04.09.2012 08:41 14,8 C 86 % 1024,0 hPa 0,0 l/m 4,0 km/h (1 Bft) W-NW 292 12,5 C 14,8 C
04.09.2012 08:41 14,8 C 86 % 1024,0 hPa 0,0 l/m 4,0 km/h (1 Bft) W-NW 292 12,5 C 14,8 C
04.09.2012 08:46 14,9 C 85 % 1023,9 hPa 0,0 l/m 1,8 km/h (1 Bft) NW 315 12,4 C 14,9 C
04.09.2012 08:46 14,9 C 85 % 1023,9 hPa 0,0 l/m 1,8 km/h (1 Bft) NW 315 12,4 C 14,9 C
04.09.2012 08:51 14,9 C 85 % 1023,8 hPa 0,0 l/m 1,4 km/h (1 Bft) N-NO 22 12,4 C 14,9 C
04.09.2012 08:51 14,9 C 85 % 1023,8 hPa 0,0 l/m 1,4 km/h (1 Bft) N-NO 22 12,4 C 14,9 C
04.09.2012 08:56 14,9 C 85 % 1023,7 hPa 0,0 l/m 1,4 km/h (1 Bft) N 360 12,4 C 14,9 C
04.09.2012 08:56 14,9 C 85 % 1023,7 hPa 0,0 l/m 1,4 km/h (1 Bft) N 360 12,4 C 14,9 C
04.09.2012 09:01 15,1 C 85 % 1023,8 hPa 0,0 l/m 0,0 km/h (0 Bft) NW 315 12,6 C 15,1 C
04.09.2012 09:01 15,1 C 85 % 1023,8 hPa 0,0 l/m 0,0 km/h (0 Bft) NW 315 12,6 C 15,1 C
04.09.2012 09:06 15,4 C 84 % 1023,7 hPa 0,0 l/m 1,4 km/h (1 Bft) NW 315 12,7 C 15,4 C
04.09.2012 09:06 15,4 C 84 % 1023,7 hPa 0,0 l/m 1,4 km/h (1 Bft) NW 315 12,7 C 15,4 C
04.09.2012 09:11 15,6 C 84 % 1023,7 hPa 0,0 l/m 0,0 km/h (0 Bft) N 360 12,9 C 15,6 C
04.09.2012 09:11 15,6 C 84 % 1023,7 hPa 0,0 l/m 0,0 km/h (0 Bft) N 360 12,9 C 15,6 C
04.09.2012 09:16 15,8 C 83 % 1023,7 hPa 0,0 l/m 3,2 km/h (1 Bft) NW 315 12,9 C 15,8 C
04.09.2012 09:16 15,8 C 83 % 1023,7 hPa 0,0 l/m 3,2 km/h (1 Bft) NW 315 12,9 C 15,8 C
04.09.2012 09:21 15,9 C 83 % 1023,7 hPa 0,0 l/m 3,6 km/h (1 Bft) W 270 13,0 C 15,9 C
04.09.2012 09:21 15,9 C 83 % 1023,7 hPa 0,0 l/m 3,6 km/h (1 Bft) W 270 13,0 C 15,9 C
04.09.2012 09:26 16,2 C 82 % 1023,8 hPa 0,0 l/m 0,0 km/h (0 Bft) W 270 13,1 C 16,2 C
04.09.2012 09:26 16,2 C 82 % 1023,8 hPa 0,0 l/m 0,0 km/h (0 Bft) W 270 13,1 C 16,2 C
04.09.2012 09:31 16,4 C 81 % 1023,7 hPa 0,0 l/m 0,0 km/h (0 Bft) W-SW 247 13,1 C 16,4 C
04.09.2012 09:31 16,4 C 81 % 1023,7 hPa 0,0 l/m 0,0 km/h (0 Bft) W-SW 247 13,1 C 16,4 C
04.09.2012 09:36 16,6 C 81 % 1023,7 hPa 0,0 l/m 0,0 km/h (0 Bft) W-NW 292 13,3 C 16,6 C
04.09.2012 09:36 16,6 C 81 % 1023,7 hPa 0,0 l/m 0,0 km/h (0 Bft) W-NW 292 13,3 C 16,6 C
04.09.2012 09:41 16,8 C 81 % 1023,8 hPa 0,0 l/m 0,0 km/h (0 Bft) W-NW 292 13,5 C 16,8 C
04.09.2012 09:41 16,8 C 81 % 1023,8 hPa 0,0 l/m 0,0 km/h (0 Bft) W-NW 292 13,5 C 16,8 C
04.09.2012 09:46 16,9 C 80 % 1023,9 hPa 0,0 l/m 0,0 km/h (0 Bft) W 270 13,4 C 16,9 C
04.09.2012 09:46 16,9 C 80 % 1023,9 hPa 0,0 l/m 0,0 km/h (0 Bft) W 270 13,4 C 16,9 C
04.09.2012 09:51 17,2 C 78 % 1023,7 hPa 0,0 l/m 3,6 km/h (1 Bft) NO 45 13,3 C 17,2 C
04.09.2012 09:51 17,2 C 78 % 1023,7 hPa 0,0 l/m 3,6 km/h (1 Bft) NO 45 13,3 C 17,2 C
04.09.2012 09:56 17,2 C 78 % 1023,8 hPa 0,0 l/m 2,9 km/h (1 Bft) NW 315 13,3 C 17,2 C
04.09.2012 09:56 17,2 C 78 % 1023,8 hPa 0,0 l/m 2,9 km/h (1 Bft) NW 315 13,3 C 17,2 C
04.09.2012 10:01 17,4 C 78 % 1023,8 hPa 0,0 l/m 7,2 km/h (2 Bft) W 270 13,5 C 17,4 C
04.09.2012 10:01 17,4 C 78 % 1023,8 hPa 0,0 l/m 7,2 km/h (2 Bft) W 270 13,5 C 17,4 C
04.09.2012 10:06 17,6 C 78 % 1023,8 hPa 0,0 l/m 0,0 km/h (0 Bft) W-NW 292 13,7 C 17,6 C
04.09.2012 10:06 17,6 C 78 % 1023,8 hPa 0,0 l/m 0,0 km/h (0 Bft) W-NW 292 13,7 C 17,6 C
04.09.2012 10:11 17,9 C 76 % 1023,8 hPa 0,0 l/m 2,5 km/h (1 Bft) W 270 13,6 C 17,9 C
04.09.2012 10:11 17,9 C 76 % 1023,8 hPa 0,0 l/m 2,5 km/h (1 Bft) W 270 13,6 C 17,9 C
04.09.2012 10:16 18,1 C 76 % 1023,7 hPa 0,0 l/m 0,0 km/h (0 Bft) W-SW 247 13,8 C 18,1 C
04.09.2012 10:16 18,1 C 76 % 1023,7 hPa 0,0 l/m 0,0 km/h (0 Bft) W-SW 247 13,8 C 18,1 C
04.09.2012 10:21 18,4 C 74 % 1023,7 hPa 0,0 l/m 5,4 km/h (1 Bft) W-NW 292 13,7 C 18,4 C
04.09.2012 10:21 18,4 C 74 % 1023,7 hPa 0,0 l/m 5,4 km/h (1 Bft) W-NW 292 13,7 C 18,4 C
04.09.2012 10:26 18,5 C 74 % 1023,6 hPa 0,0 l/m 0,0 km/h (0 Bft) W-NW 292 13,8 C 18,5 C
04.09.2012 10:26 18,5 C 74 % 1023,6 hPa 0,0 l/m 0,0 km/h (0 Bft) W-NW 292 13,8 C 18,5 C
04.09.2012 10:31 18,6 C 73 % 1023,7 hPa 0,0 l/m 0,0 km/h (0 Bft) W 270 13,7 C 18,6 C
04.09.2012 10:31 18,6 C 73 % 1023,7 hPa 0,0 l/m 0,0 km/h (0 Bft) W 270 13,7 C 18,6 C
04.09.2012 10:36 18,8 C 72 % 1023,7 hPa 0,0 l/m 0,0 km/h (0 Bft) W 270 13,6 C 18,8 C
04.09.2012 10:36 18,8 C 72 % 1023,7 hPa 0,0 l/m 0,0 km/h (0 Bft) W 270 13,6 C 18,8 C
04.09.2012 10:41 18,9 C 71 % 1023,6 hPa 0,0 l/m 0,0 km/h (0 Bft) N 360 13,5 C 18,9 C
04.09.2012 10:41 18,9 C 71 % 1023,6 hPa 0,0 l/m 0,0 km/h (0 Bft) N 360 13,5 C 18,9 C
04.09.2012 10:46 19,1 C 71 % 1023,7 hPa 0,0 l/m 4,0 km/h (1 Bft) W 270 13,7 C 19,1 C
04.09.2012 10:46 19,1 C 71 % 1023,7 hPa 0,0 l/m 4,0 km/h (1 Bft) W 270 13,7 C 19,1 C
04.09.2012 10:51 19,4 C 70 % 1023,4 hPa 0,0 l/m 1,4 km/h (1 Bft) W-NW 292 13,8 C 19,4 C
04.09.2012 10:51 19,4 C 70 % 1023,4 hPa 0,0 l/m 1,4 km/h (1 Bft) W-NW 292 13,8 C 19,4 C
04.09.2012 10:56 19,6 C 69 % 1023,5 hPa 0,0 l/m 2,9 km/h (1 Bft) NW 315 13,8 C 19,6 C
04.09.2012 10:56 19,6 C 69 % 1023,5 hPa 0,0 l/m 2,9 km/h (1 Bft) NW 315 13,8 C 19,6 C
04.09.2012 11:01 19,7 C 68 % 1023,5 hPa 0,0 l/m 4,0 km/h (1 Bft) W-NW 292 13,6 C 19,7 C
04.09.2012 11:01 19,7 C 68 % 1023,5 hPa 0,0 l/m 4,0 km/h (1 Bft) W-NW 292 13,6 C 19,7 C
04.09.2012 11:06 19,9 C 68 % 1023,5 hPa 0,0 l/m 2,2 km/h (1 Bft) NO 45 13,8 C 19,9 C
04.09.2012 11:06 19,9 C 68 % 1023,5 hPa 0,0 l/m 2,2 km/h (1 Bft) NO 45 13,8 C 19,9 C
04.09.2012 11:11 19,9 C 67 % 1023,4 hPa 0,0 l/m 5,8 km/h (2 Bft) W-NW 292 13,6 C 19,9 C
04.09.2012 11:11 19,9 C 67 % 1023,4 hPa 0,0 l/m 5,8 km/h (2 Bft) W-NW 292 13,6 C 19,9 C
04.09.2012 11:16 20,1 C 66 % 1023,5 hPa 0,0 l/m 8,6 km/h (2 Bft) W-NW 292 13,5 C 20,1 C
04.09.2012 11:16 20,1 C 66 % 1023,5 hPa 0,0 l/m 8,6 km/h (2 Bft) W-NW 292 13,5 C 20,1 C
04.09.2012 11:21 20,3 C 66 % 1023,4 hPa 0,0 l/m 12,2 km/h (2 Bft) W-SW 247 13,7 C 20,3 C
04.09.2012 11:21 20,3 C 66 % 1023,4 hPa 0,0 l/m 12,2 km/h (2 Bft) W-SW 247 13,7 C 20,3 C
04.09.2012 11:26 20,4 C 65 % 1023,3 hPa 0,0 l/m 6,5 km/h (2 Bft) W-SW 247 13,6 C 20,4 C
04.09.2012 11:26 20,4 C 65 % 1023,3 hPa 0,0 l/m 6,5 km/h (2 Bft) W-SW 247 13,6 C 20,4 C
04.09.2012 11:31 20,6 C 65 % 1023,4 hPa 0,0 l/m 7,6 km/h (2 Bft) W-SW 247 13,8 C 20,6 C
04.09.2012 11:31 20,6 C 65 % 1023,4 hPa 0,0 l/m 7,6 km/h (2 Bft) W-SW 247 13,8 C 20,6 C
04.09.2012 11:36 20,7 C 64 % 1023,3 hPa 0,0 l/m 5,4 km/h (1 Bft) W-NW 292 13,6 C 20,7 C
04.09.2012 11:36 20,7 C 64 % 1023,3 hPa 0,0 l/m 5,4 km/h (1 Bft) W-NW 292 13,6 C 20,7 C
04.09.2012 11:41 20,8 C 64 % 1023,4 hPa 0,0 l/m 4,0 km/h (1 Bft) W 270 13,7 C 20,8 C
04.09.2012 11:41 20,8 C 64 % 1023,4 hPa 0,0 l/m 4,0 km/h (1 Bft) W 270 13,7 C 20,8 C
04.09.2012 11:46 20,9 C 63 % 1023,4 hPa 0,0 l/m 5,8 km/h (2 Bft) SW 225 13,6 C 20,9 C
04.09.2012 11:46 20,9 C 63 % 1023,4 hPa 0,0 l/m 5,8 km/h (2 Bft) SW 225 13,6 C 20,9 C
04.09.2012 11:51 21,1 C 62 % 1023,3 hPa 0,0 l/m 11,9 km/h (2 Bft) W 270 13,5 C 21,1 C
04.09.2012 11:51 21,1 C 62 % 1023,3 hPa 0,0 l/m 11,9 km/h (2 Bft) W 270 13,5 C 21,1 C
04.09.2012 11:56 21,2 C 61 % 1023,2 hPa 0,0 l/m 4,7 km/h (1 Bft) SW 225 13,4 C 21,2 C
04.09.2012 11:56 21,2 C 61 % 1023,2 hPa 0,0 l/m 4,7 km/h (1 Bft) SW 225 13,4 C 21,2 C
04.09.2012 12:01 21,3 C 60 % 1023,2 hPa 0,0 l/m 9,4 km/h (2 Bft) W-SW 247 13,2 C 21,3 C
04.09.2012 12:01 21,3 C 60 % 1023,2 hPa 0,0 l/m 9,4 km/h (2 Bft) W-SW 247 13,2 C 21,3 C
04.09.2012 12:06 21,5 C 60 % 1023,0 hPa 0,0 l/m 4,0 km/h (1 Bft) W-NW 292 13,4 C 21,5 C
04.09.2012 12:06 21,5 C 60 % 1023,0 hPa 0,0 l/m 4,0 km/h (1 Bft) W-NW 292 13,4 C 21,5 C
04.09.2012 12:11 21,6 C 59 % 1023,1 hPa 0,0 l/m 18,7 km/h (3 Bft) W 270 13,2 C 21,6 C
04.09.2012 12:11 21,6 C 59 % 1023,1 hPa 0,0 l/m 18,7 km/h (3 Bft) W 270 13,2 C 21,6 C
04.09.2012 12:16 21,7 C 58 % 1023,0 hPa 0,0 l/m 6,1 km/h (2 Bft) W 270 13,1 C 21,7 C
04.09.2012 12:16 21,7 C 58 % 1023,0 hPa 0,0 l/m 6,1 km/h (2 Bft) W 270 13,1 C 21,7 C
04.09.2012 12:21 21,8 C 57 % 1022,9 hPa 0,0 l/m 6,8 km/h (2 Bft) N-NW 337 12,9 C 21,8 C
04.09.2012 12:21 21,8 C 57 % 1022,9 hPa 0,0 l/m 6,8 km/h (2 Bft) N-NW 337 12,9 C 21,8 C
04.09.2012 12:26 21,9 C 56 % 1022,9 hPa 0,0 l/m 11,2 km/h (2 Bft) W 270 12,7 C 21,9 C
04.09.2012 12:26 21,9 C 56 % 1022,9 hPa 0,0 l/m 11,2 km/h (2 Bft) W 270 12,7 C 21,9 C
04.09.2012 12:31 21,9 C 56 % 1022,8 hPa 0,0 l/m 7,6 km/h (2 Bft) W-SW 247 12,7 C 21,9 C
04.09.2012 12:31 21,9 C 56 % 1022,8 hPa 0,0 l/m 7,6 km/h (2 Bft) W-SW 247 12,7 C 21,9 C
04.09.2012 12:36 22,2 C 56 % 1022,7 hPa 0,0 l/m 8,6 km/h (2 Bft) S-SW 202 13,0 C 22,2 C
04.09.2012 12:36 22,2 C 56 % 1022,7 hPa 0,0 l/m 8,6 km/h (2 Bft) S-SW 202 13,0 C 22,2 C
04.09.2012 12:41 22,3 C 55 % 1022,8 hPa 0,0 l/m 6,5 km/h (2 Bft) S-SW 202 12,8 C 22,3 C
04.09.2012 12:41 22,3 C 55 % 1022,8 hPa 0,0 l/m 6,5 km/h (2 Bft) S-SW 202 12,8 C 22,3 C
04.09.2012 12:46 22,4 C 54 % 1022,6 hPa 0,0 l/m 8,6 km/h (2 Bft) W-SW 247 12,6 C 22,4 C
04.09.2012 12:46 22,4 C 54 % 1022,6 hPa 0,0 l/m 8,6 km/h (2 Bft) W-SW 247 12,6 C 22,4 C
04.09.2012 12:51 22,6 C 52 % 1022,6 hPa 0,0 l/m 5,4 km/h (1 Bft) SW 225 12,2 C 22,6 C
04.09.2012 12:51 22,6 C 52 % 1022,6 hPa 0,0 l/m 5,4 km/h (1 Bft) SW 225 12,2 C 22,6 C
04.09.2012 12:56 22,7 C 52 % 1022,6 hPa 0,0 l/m 7,9 km/h (2 Bft) W-SW 247 12,3 C 22,7 C
04.09.2012 12:56 22,7 C 52 % 1022,6 hPa 0,0 l/m 7,9 km/h (2 Bft) W-SW 247 12,3 C 22,7 C
04.09.2012 13:01 22,8 C 51 % 1022,5 hPa 0,0 l/m 4,0 km/h (1 Bft) S 180 12,1 C 22,8 C
04.09.2012 13:01 22,8 C 51 % 1022,5 hPa 0,0 l/m 4,0 km/h (1 Bft) S 180 12,1 C 22,8 C
04.09.2012 13:06 22,8 C 50 % 1022,5 hPa 0,0 l/m 12,2 km/h (2 Bft) W-SW 247 11,8 C 22,8 C
04.09.2012 13:06 22,8 C 50 % 1022,5 hPa 0,0 l/m 12,2 km/h (2 Bft) W-SW 247 11,8 C 22,8 C
04.09.2012 13:11 22,9 C 50 % 1022,4 hPa 0,0 l/m 4,0 km/h (1 Bft) W-SW 247 11,9 C 22,9 C
04.09.2012 13:11 22,9 C 50 % 1022,4 hPa 0,0 l/m 4,0 km/h (1 Bft) W-SW 247 11,9 C 22,9 C
04.09.2012 13:16 23,1 C 51 % 1022,5 hPa 0,0 l/m 3,6 km/h (1 Bft) W 270 12,4 C 23,1 C
04.09.2012 13:16 23,1 C 51 % 1022,5 hPa 0,0 l/m 3,6 km/h (1 Bft) W 270 12,4 C 23,1 C
04.09.2012 13:21 23,2 C 50 % 1022,4 hPa 0,0 l/m 9,4 km/h (2 Bft) SW 225 12,2 C 23,2 C
04.09.2012 13:21 23,2 C 50 % 1022,4 hPa 0,0 l/m 9,4 km/h (2 Bft) SW 225 12,2 C 23,2 C
04.09.2012 13:26 23,2 C 49 % 1022,4 hPa 0,0 l/m 4,0 km/h (1 Bft) W-SW 247 11,9 C 23,2 C
04.09.2012 13:26 23,2 C 49 % 1022,4 hPa 0,0 l/m 4,0 km/h (1 Bft) W-SW 247 11,9 C 23,2 C
04.09.2012 13:31 23,3 C 49 % 1022,3 hPa 0,0 l/m 11,9 km/h (2 Bft) W-SW 247 12,0 C 23,3 C
04.09.2012 13:31 23,3 C 49 % 1022,3 hPa 0,0 l/m 11,9 km/h (2 Bft) W-SW 247 12,0 C 23,3 C
04.09.2012 13:36 23,4 C 49 % 1022,4 hPa 0,0 l/m 3,6 km/h (1 Bft) W-SW 247 12,1 C 23,4 C
04.09.2012 13:36 23,4 C 49 % 1022,4 hPa 0,0 l/m 3,6 km/h (1 Bft) W-SW 247 12,1 C 23,4 C
04.09.2012 13:41 23,5 C 49 % 1022,2 hPa 0,0 l/m 8,6 km/h (2 Bft) W-SW 247 12,2 C 23,5 C
04.09.2012 13:41 23,5 C 49 % 1022,2 hPa 0,0 l/m 8,6 km/h (2 Bft) W-SW 247 12,2 C 23,5 C
04.09.2012 13:46 23,6 C 47 % 1022,3 hPa 0,0 l/m 12,6 km/h (3 Bft) W-SW 247 11,6 C 23,6 C
04.09.2012 13:46 23,6 C 47 % 1022,3 hPa 0,0 l/m 12,6 km/h (3 Bft) W-SW 247 11,6 C 23,6 C
04.09.2012 13:51 23,7 C 47 % 1022,1 hPa 0,0 l/m 5,4 km/h (1 Bft) W-SW 247 11,7 C 23,7 C
04.09.2012 13:51 23,7 C 47 % 1022,1 hPa 0,0 l/m 5,4 km/h (1 Bft) W-SW 247 11,7 C 23,7 C
04.09.2012 13:56 23,8 C 47 % 1022,0 hPa 0,0 l/m 7,6 km/h (2 Bft) S-SW 202 11,8 C 23,8 C
04.09.2012 13:56 23,8 C 47 % 1022,0 hPa 0,0 l/m 7,6 km/h (2 Bft) S-SW 202 11,8 C 23,8 C
04.09.2012 14:01 23,9 C 46 % 1022,1 hPa 0,0 l/m 6,5 km/h (2 Bft) W 270 11,6 C 23,9 C
04.09.2012 14:01 23,9 C 46 % 1022,1 hPa 0,0 l/m 6,5 km/h (2 Bft) W 270 11,6 C 23,9 C
04.09.2012 14:06 23,9 C 47 % 1021,9 hPa 0,0 l/m 1,1 km/h (1 Bft) W-NW 292 11,9 C 23,9 C
04.09.2012 14:06 23,9 C 47 % 1021,9 hPa 0,0 l/m 1,1 km/h (1 Bft) W-NW 292 11,9 C 23,9 C
04.09.2012 14:11 24,1 C 46 % 1021,9 hPa 0,0 l/m 8,6 km/h (2 Bft) W 270 11,7 C 24,1 C
04.09.2012 14:11 24,1 C 46 % 1021,9 hPa 0,0 l/m 8,6 km/h (2 Bft) W 270 11,7 C 24,1 C
04.09.2012 14:16 24,1 C 46 % 1022,1 hPa 0,0 l/m 3,2 km/h (1 Bft) W-SW 247 11,7 C 24,1 C
04.09.2012 14:16 24,1 C 46 % 1022,1 hPa 0,0 l/m 3,2 km/h (1 Bft) W-SW 247 11,7 C 24,1 C
04.09.2012 14:21 24,1 C 46 % 1022,1 hPa 0,0 l/m 6,5 km/h (2 Bft) W-SW 247 11,7 C 24,1 C
04.09.2012 14:21 24,1 C 46 % 1022,1 hPa 0,0 l/m 6,5 km/h (2 Bft) W-SW 247 11,7 C 24,1 C
04.09.2012 14:26 24,2 C 46 % 1022,1 hPa 0,0 l/m 9,7 km/h (2 Bft) W-SW 247 11,8 C 24,2 C
04.09.2012 14:26 24,2 C 46 % 1022,1 hPa 0,0 l/m 9,7 km/h (2 Bft) W-SW 247 11,8 C 24,2 C
04.09.2012 14:31 24,3 C 47 % 1022,0 hPa 0,0 l/m 9,7 km/h (2 Bft) S-SW 202 12,3 C 24,3 C
04.09.2012 14:31 24,3 C 47 % 1022,0 hPa 0,0 l/m 9,7 km/h (2 Bft) S-SW 202 12,3 C 24,3 C
04.09.2012 14:36 24,4 C 46 % 1021,9 hPa 0,0 l/m 7,6 km/h (2 Bft) W 270 12,0 C 24,4 C
04.09.2012 14:36 24,4 C 46 % 1021,9 hPa 0,0 l/m 7,6 km/h (2 Bft) W 270 12,0 C 24,4 C
04.09.2012 14:41 24,5 C 46 % 1021,8 hPa 0,0 l/m 2,5 km/h (1 Bft) W 270 12,1 C 24,5 C
04.09.2012 14:41 24,5 C 46 % 1021,8 hPa 0,0 l/m 2,5 km/h (1 Bft) W 270 12,1 C 24,5 C
04.09.2012 14:46 24,6 C 47 % 1021,7 hPa 0,0 l/m 6,5 km/h (2 Bft) W-SW 247 12,5 C 24,6 C
04.09.2012 14:46 24,6 C 47 % 1021,7 hPa 0,0 l/m 6,5 km/h (2 Bft) W-SW 247 12,5 C 24,6 C
04.09.2012 14:51 24,7 C 47 % 1021,7 hPa 0,0 l/m 7,2 km/h (2 Bft) SW 225 12,6 C 24,7 C
04.09.2012 14:51 24,7 C 47 % 1021,7 hPa 0,0 l/m 7,2 km/h (2 Bft) SW 225 12,6 C 24,7 C
04.09.2012 14:56 24,9 C 47 % 1021,7 hPa 0,0 l/m 4,7 km/h (1 Bft) W-SW 247 12,8 C 24,9 C
04.09.2012 14:56 24,9 C 47 % 1021,7 hPa 0,0 l/m 4,7 km/h (1 Bft) W-SW 247 12,8 C 24,9 C
04.09.2012 15:01 24,9 C 46 % 1021,6 hPa 0,0 l/m 2,5 km/h (1 Bft) W-NW 292 12,5 C 24,9 C
04.09.2012 15:01 24,9 C 46 % 1021,6 hPa 0,0 l/m 2,5 km/h (1 Bft) W-NW 292 12,5 C 24,9 C
04.09.2012 15:06 24,9 C 46 % 1021,5 hPa 0,0 l/m 4,0 km/h (1 Bft) W 270 12,5 C 24,9 C
04.09.2012 15:06 24,9 C 46 % 1021,5 hPa 0,0 l/m 4,0 km/h (1 Bft) W 270 12,5 C 24,9 C
04.09.2012 15:11 24,9 C 47 % 1021,5 hPa 0,0 l/m 3,2 km/h (1 Bft) W-NW 292 12,8 C 24,9 C
04.09.2012 15:11 24,9 C 47 % 1021,5 hPa 0,0 l/m 3,2 km/h (1 Bft) W-NW 292 12,8 C 24,9 C
04.09.2012 15:16 24,9 C 47 % 1021,5 hPa 0,0 l/m 15,5 km/h (3 Bft) W-SW 247 12,8 C 24,9 C
04.09.2012 15:16 24,9 C 47 % 1021,5 hPa 0,0 l/m 15,5 km/h (3 Bft) W-SW 247 12,8 C 24,9 C
04.09.2012 15:21 24,9 C 47 % 1021,3 hPa 0,0 l/m 10,1 km/h (2 Bft) W 270 12,8 C 24,9 C
04.09.2012 15:21 24,9 C 47 % 1021,3 hPa 0,0 l/m 10,1 km/h (2 Bft) W 270 12,8 C 24,9 C
04.09.2012 15:26 25,1 C 47 % 1021,3 hPa 0,0 l/m 4,7 km/h (1 Bft) SW 225 13,0 C 25,1 C
04.09.2012 15:26 25,1 C 47 % 1021,3 hPa 0,0 l/m 4,7 km/h (1 Bft) SW 225 13,0 C 25,1 C
04.09.2012 15:31 25,1 C 46 % 1021,1 hPa 0,0 l/m 1,8 km/h (1 Bft) NW 315 12,7 C 25,1 C
04.09.2012 15:31 25,1 C 46 % 1021,1 hPa 0,0 l/m 1,8 km/h (1 Bft) NW 315 12,7 C 25,1 C
04.09.2012 15:36 25,3 C 47 % 1021,3 hPa 0,0 l/m 5,8 km/h (2 Bft) W-SW 247 13,2 C 25,3 C
04.09.2012 15:36 25,3 C 47 % 1021,3 hPa 0,0 l/m 5,8 km/h (2 Bft) W-SW 247 13,2 C 25,3 C
04.09.2012 15:41 25,5 C 46 % 1021,3 hPa 0,0 l/m 7,2 km/h (2 Bft) W-SW 247 13,0 C 25,5 C
04.09.2012 15:41 25,5 C 46 % 1021,3 hPa 0,0 l/m 7,2 km/h (2 Bft) W-SW 247 13,0 C 25,5 C
04.09.2012 15:46 25,4 C 46 % 1021,2 hPa 0,0 l/m 13,7 km/h (3 Bft) W-SW 247 12,9 C 25,4 C
04.09.2012 15:46 25,4 C 46 % 1021,2 hPa 0,0 l/m 13,7 km/h (3 Bft) W-SW 247 12,9 C 25,4 C
04.09.2012 15:51 25,5 C 46 % 1021,1 hPa 0,0 l/m 4,7 km/h (1 Bft) W 270 13,0 C 25,5 C
04.09.2012 15:51 25,5 C 46 % 1021,1 hPa 0,0 l/m 4,7 km/h (1 Bft) W 270 13,0 C 25,5 C
04.09.2012 15:56 25,6 C 46 % 1021,1 hPa 0,0 l/m 4,0 km/h (1 Bft) W 270 13,1 C 25,6 C
04.09.2012 15:56 25,6 C 46 % 1021,1 hPa 0,0 l/m 4,0 km/h (1 Bft) W 270 13,1 C 25,6 C
04.09.2012 16:01 25,6 C 46 % 1021,0 hPa 0,0 l/m 6,5 km/h (2 Bft) N-NO 22 13,1 C 25,6 C
04.09.2012 16:01 25,6 C 46 % 1021,0 hPa 0,0 l/m 6,5 km/h (2 Bft) N-NO 22 13,1 C 25,6 C
04.09.2012 16:06 25,4 C 46 % 1021,0 hPa 0,0 l/m 7,6 km/h (2 Bft) SW 225 12,9 C 25,4 C
04.09.2012 16:06 25,4 C 46 % 1021,0 hPa 0,0 l/m 7,6 km/h (2 Bft) SW 225 12,9 C 25,4 C
04.09.2012 16:11 25,3 C 46 % 1021,0 hPa 0,0 l/m 3,2 km/h (1 Bft) W 270 12,8 C 25,3 C
04.09.2012 16:11 25,3 C 46 % 1021,0 hPa 0,0 l/m 3,2 km/h (1 Bft) W 270 12,8 C 25,3 C
04.09.2012 16:16 25,3 C 46 % 1020,9 hPa 0,0 l/m 4,7 km/h (1 Bft) NW 315 12,8 C 25,3 C
04.09.2012 16:16 25,3 C 46 % 1020,9 hPa 0,0 l/m 4,7 km/h (1 Bft) NW 315 12,8 C 25,3 C
04.09.2012 16:21 25,4 C 46 % 1020,8 hPa 0,0 l/m 3,2 km/h (1 Bft) W-NW 292 12,9 C 25,4 C
04.09.2012 16:21 25,4 C 46 % 1020,8 hPa 0,0 l/m 3,2 km/h (1 Bft) W-NW 292 12,9 C 25,4 C
04.09.2012 16:26 25,4 C 46 % 1020,6 hPa 0,0 l/m 3,2 km/h (1 Bft) W-NW 292 12,9 C 25,4 C
04.09.2012 16:26 25,4 C 46 % 1020,6 hPa 0,0 l/m 3,2 km/h (1 Bft) W-NW 292 12,9 C 25,4 C
04.09.2012 16:31 25,5 C 46 % 1020,6 hPa 0,0 l/m 8,6 km/h (2 Bft) SW 225 13,0 C 25,5 C
04.09.2012 16:31 25,5 C 46 % 1020,6 hPa 0,0 l/m 8,6 km/h (2 Bft) SW 225 13,0 C 25,5 C
04.09.2012 16:36 25,6 C 46 % 1020,5 hPa 0,0 l/m 4,0 km/h (1 Bft) SW 225 13,1 C 25,6 C
04.09.2012 16:36 25,6 C 46 % 1020,5 hPa 0,0 l/m 4,0 km/h (1 Bft) SW 225 13,1 C 25,6 C
04.09.2012 16:41 25,7 C 46 % 1020,5 hPa 0,0 l/m 9,0 km/h (2 Bft) W-SW 247 13,2 C 25,7 C
04.09.2012 16:41 25,7 C 46 % 1020,5 hPa 0,0 l/m 9,0 km/h (2 Bft) W-SW 247 13,2 C 25,7 C
04.09.2012 16:46 25,8 C 45 % 1020,5 hPa 0,0 l/m 4,7 km/h (1 Bft) W 270 13,0 C 25,8 C
04.09.2012 16:46 25,8 C 45 % 1020,5 hPa 0,0 l/m 4,7 km/h (1 Bft) W 270 13,0 C 25,8 C
04.09.2012 16:51 25,8 C 46 % 1020,4 hPa 0,0 l/m 7,2 km/h (2 Bft) W-SW 247 13,3 C 25,8 C
04.09.2012 16:51 25,8 C 46 % 1020,4 hPa 0,0 l/m 7,2 km/h (2 Bft) W-SW 247 13,3 C 25,8 C
04.09.2012 16:56 25,8 C 46 % 1020,3 hPa 0,0 l/m 7,2 km/h (2 Bft) W-NW 292 13,3 C 25,8 C
04.09.2012 16:56 25,8 C 46 % 1020,3 hPa 0,0 l/m 7,2 km/h (2 Bft) W-NW 292 13,3 C 25,8 C
04.09.2012 17:01 25,8 C 46 % 1020,2 hPa 0,0 l/m 3,6 km/h (1 Bft) W 270 13,3 C 25,8 C
04.09.2012 17:01 25,8 C 46 % 1020,2 hPa 0,0 l/m 3,6 km/h (1 Bft) W 270 13,3 C 25,8 C
04.09.2012 17:06 25,6 C 46 % 1020,2 hPa 0,0 l/m 2,5 km/h (1 Bft) W 270 13,1 C 25,6 C
04.09.2012 17:06 25,6 C 46 % 1020,2 hPa 0,0 l/m 2,5 km/h (1 Bft) W 270 13,1 C 25,6 C
04.09.2012 17:11 25,6 C 47 % 1020,2 hPa 0,0 l/m 2,5 km/h (1 Bft) N-NW 337 13,4 C 25,6 C
04.09.2012 17:11 25,6 C 47 % 1020,2 hPa 0,0 l/m 2,5 km/h (1 Bft) N-NW 337 13,4 C 25,6 C
04.09.2012 17:16 25,6 C 46 % 1020,3 hPa 0,0 l/m 11,5 km/h (2 Bft) W-SW 247 13,1 C 25,6 C
04.09.2012 17:16 25,6 C 46 % 1020,3 hPa 0,0 l/m 11,5 km/h (2 Bft) W-SW 247 13,1 C 25,6 C
04.09.2012 17:21 25,5 C 46 % 1020,3 hPa 0,0 l/m 4,0 km/h (1 Bft) NW 315 13,0 C 25,5 C
04.09.2012 17:21 25,5 C 46 % 1020,3 hPa 0,0 l/m 4,0 km/h (1 Bft) NW 315 13,0 C 25,5 C
04.09.2012 17:26 25,4 C 47 % 1020,1 hPa 0,0 l/m 2,9 km/h (1 Bft) W 270 13,3 C 25,4 C
04.09.2012 17:26 25,4 C 47 % 1020,1 hPa 0,0 l/m 2,9 km/h (1 Bft) W 270 13,3 C 25,4 C
04.09.2012 17:31 25,3 C 47 % 1020,2 hPa 0,0 l/m 20,9 km/h (4 Bft) W-SW 247 13,2 C 25,3 C
04.09.2012 17:31 25,3 C 47 % 1020,2 hPa 0,0 l/m 20,9 km/h (4 Bft) W-SW 247 13,2 C 25,3 C
04.09.2012 17:36 25,2 C 47 % 1020,2 hPa 0,0 l/m 5,8 km/h (2 Bft) NW 315 13,1 C 25,2 C
04.09.2012 17:36 25,2 C 47 % 1020,2 hPa 0,0 l/m 5,8 km/h (2 Bft) NW 315 13,1 C 25,2 C
04.09.2012 17:41 25,3 C 47 % 1020,1 hPa 0,0 l/m 14,4 km/h (3 Bft) W 270 13,2 C 25,3 C
04.09.2012 17:41 25,3 C 47 % 1020,1 hPa 0,0 l/m 14,4 km/h (3 Bft) W 270 13,2 C 25,3 C
04.09.2012 17:46 25,3 C 47 % 1020,1 hPa 0,0 l/m 0,0 km/h (0 Bft) NW 315 13,2 C 25,3 C
04.09.2012 17:46 25,3 C 47 % 1020,1 hPa 0,0 l/m 0,0 km/h (0 Bft) NW 315 13,2 C 25,3 C
04.09.2012 17:51 25,1 C 47 % 1020,1 hPa 0,0 l/m 6,1 km/h (2 Bft) NW 315 13,0 C 25,1 C
04.09.2012 17:51 25,1 C 47 % 1020,1 hPa 0,0 l/m 6,1 km/h (2 Bft) NW 315 13,0 C 25,1 C
04.09.2012 17:56 24,9 C 48 % 1020,0 hPa 0,0 l/m 8,6 km/h (2 Bft) W 270 13,1 C 24,9 C
04.09.2012 17:56 24,9 C 48 % 1020,0 hPa 0,0 l/m 8,6 km/h (2 Bft) W 270 13,1 C 24,9 C
04.09.2012 18:01 24,8 C 48 % 1019,9 hPa 0,0 l/m 0,0 km/h (0 Bft) W 270 13,0 C 24,8 C
04.09.2012 18:01 24,8 C 48 % 1019,9 hPa 0,0 l/m 0,0 km/h (0 Bft) W 270 13,0 C 24,8 C
04.09.2012 18:06 24,8 C 49 % 1019,9 hPa 0,0 l/m 6,5 km/h (2 Bft) W-SW 247 13,3 C 24,8 C
04.09.2012 18:06 24,8 C 49 % 1019,9 hPa 0,0 l/m 6,5 km/h (2 Bft) W-SW 247 13,3 C 24,8 C
04.09.2012 18:11 24,6 C 49 % 1019,8 hPa 0,0 l/m 4,0 km/h (1 Bft) W-NW 292 13,2 C 24,6 C
04.09.2012 18:11 24,6 C 49 % 1019,8 hPa 0,0 l/m 4,0 km/h (1 Bft) W-NW 292 13,2 C 24,6 C
04.09.2012 18:16 24,5 C 49 % 1019,8 hPa 0,0 l/m 10,4 km/h (2 Bft) W 270 13,1 C 24,5 C
04.09.2012 18:16 24,5 C 49 % 1019,8 hPa 0,0 l/m 10,4 km/h (2 Bft) W 270 13,1 C 24,5 C
04.09.2012 18:21 24,4 C 49 % 1019,8 hPa 0,0 l/m 6,8 km/h (2 Bft) W-SW 247 13,0 C 24,4 C
04.09.2012 18:21 24,4 C 49 % 1019,8 hPa 0,0 l/m 6,8 km/h (2 Bft) W-SW 247 13,0 C 24,4 C
04.09.2012 18:26 24,3 C 49 % 1019,7 hPa 0,0 l/m 2,5 km/h (1 Bft) W-NW 292 12,9 C 24,3 C
04.09.2012 18:26 24,3 C 49 % 1019,7 hPa 0,0 l/m 2,5 km/h (1 Bft) W-NW 292 12,9 C 24,3 C
04.09.2012 18:31 24,2 C 50 % 1019,7 hPa 0,0 l/m 10,4 km/h (2 Bft) W-SW 247 13,1 C 24,2 C
04.09.2012 18:31 24,2 C 50 % 1019,7 hPa 0,0 l/m 10,4 km/h (2 Bft) W-SW 247 13,1 C 24,2 C
04.09.2012 18:36 24,1 C 50 % 1019,7 hPa 0,0 l/m 4,0 km/h (1 Bft) W-NW 292 13,0 C 24,1 C
04.09.2012 18:36 24,1 C 50 % 1019,7 hPa 0,0 l/m 4,0 km/h (1 Bft) W-NW 292 13,0 C 24,1 C
04.09.2012 18:41 23,9 C 50 % 1019,5 hPa 0,0 l/m 4,0 km/h (1 Bft) SW 225 12,8 C 23,9 C
04.09.2012 18:41 23,9 C 50 % 1019,5 hPa 0,0 l/m 4,0 km/h (1 Bft) SW 225 12,8 C 23,9 C
04.09.2012 18:46 23,8 C 51 % 1019,5 hPa 0,0 l/m 3,2 km/h (1 Bft) W-NW 292 13,0 C 23,8 C
04.09.2012 18:46 23,8 C 51 % 1019,5 hPa 0,0 l/m 3,2 km/h (1 Bft) W-NW 292 13,0 C 23,8 C
04.09.2012 18:51 23,6 C 51 % 1019,6 hPa 0,0 l/m 3,6 km/h (1 Bft) W 270 12,9 C 23,6 C
04.09.2012 18:51 23,6 C 51 % 1019,6 hPa 0,0 l/m 3,6 km/h (1 Bft) W 270 12,9 C 23,6 C
04.09.2012 18:56 23,6 C 51 % 1019,5 hPa 0,0 l/m 4,3 km/h (1 Bft) W 270 12,9 C 23,6 C
04.09.2012 18:56 23,6 C 51 % 1019,5 hPa 0,0 l/m 4,3 km/h (1 Bft) W 270 12,9 C 23,6 C
04.09.2012 19:01 23,5 C 51 % 1019,6 hPa 0,0 l/m 2,2 km/h (1 Bft) W-NW 292 12,8 C 23,5 C
04.09.2012 19:01 23,5 C 51 % 1019,6 hPa 0,0 l/m 2,2 km/h (1 Bft) W-NW 292 12,8 C 23,5 C
04.09.2012 19:06 23,4 C 52 % 1019,4 hPa 0,0 l/m 2,2 km/h (1 Bft) W-NW 292 13,0 C 23,4 C
04.09.2012 19:06 23,4 C 52 % 1019,4 hPa 0,0 l/m 2,2 km/h (1 Bft) W-NW 292 13,0 C 23,4 C
04.09.2012 19:11 23,6 C 52 % 1019,5 hPa 0,0 l/m 5,4 km/h (1 Bft) W-NW 292 13,2 C 23,6 C
04.09.2012 19:11 23,6 C 52 % 1019,5 hPa 0,0 l/m 5,4 km/h (1 Bft) W-NW 292 13,2 C 23,6 C
04.09.2012 19:16 23,7 C 51 % 1019,5 hPa 0,0 l/m 3,2 km/h (1 Bft) W-NW 292 13,0 C 23,7 C
04.09.2012 19:16 23,7 C 51 % 1019,5 hPa 0,0 l/m 3,2 km/h (1 Bft) W-NW 292 13,0 C 23,7 C
04.09.2012 19:21 23,6 C 52 % 1019,5 hPa 0,0 l/m 1,1 km/h (1 Bft) W-NW 292 13,2 C 23,6 C
04.09.2012 19:21 23,6 C 52 % 1019,5 hPa 0,0 l/m 1,1 km/h (1 Bft) W-NW 292 13,2 C 23,6 C
04.09.2012 19:26 23,2 C 52 % 1019,5 hPa 0,0 l/m 0,0 km/h (0 Bft) W 270 12,8 C 23,2 C
04.09.2012 19:26 23,2 C 52 % 1019,5 hPa 0,0 l/m 0,0 km/h (0 Bft) W 270 12,8 C 23,2 C
04.09.2012 19:31 22,8 C 53 % 1019,4 hPa 0,0 l/m 0,0 km/h (0 Bft) W-NW 292 12,7 C 22,8 C
04.09.2012 19:31 22,8 C 53 % 1019,4 hPa 0,0 l/m 0,0 km/h (0 Bft) W-NW 292 12,7 C 22,8 C
04.09.2012 19:36 22,3 C 54 % 1019,6 hPa 0,0 l/m 2,9 km/h (1 Bft) W-NW 292 12,5 C 22,3 C
04.09.2012 19:36 22,3 C 54 % 1019,6 hPa 0,0 l/m 2,9 km/h (1 Bft) W-NW 292 12,5 C 22,3 C
04.09.2012 19:41 22,1 C 55 % 1019,6 hPa 0,0 l/m 0,0 km/h (0 Bft) W-NW 292 12,6 C 22,1 C
04.09.2012 19:41 22,1 C 55 % 1019,6 hPa 0,0 l/m 0,0 km/h (0 Bft) W-NW 292 12,6 C 22,1 C
04.09.2012 19:46 21,8 C 56 % 1019,6 hPa 0,0 l/m 1,8 km/h (1 Bft) W-NW 292 12,6 C 21,8 C
04.09.2012 19:46 21,8 C 56 % 1019,6 hPa 0,0 l/m 1,8 km/h (1 Bft) W-NW 292 12,6 C 21,8 C
04.09.2012 19:51 21,5 C 56 % 1019,6 hPa 0,0 l/m 1,8 km/h (1 Bft) W-NW 292 12,3 C 21,5 C
04.09.2012 19:51 21,5 C 56 % 1019,6 hPa 0,0 l/m 1,8 km/h (1 Bft) W-NW 292 12,3 C 21,5 C
04.09.2012 19:56 21,3 C 57 % 1019,6 hPa 0,0 l/m 0,0 km/h (0 Bft) W-NW 292 12,4 C 21,3 C
04.09.2012 19:56 21,3 C 57 % 1019,6 hPa 0,0 l/m 0,0 km/h (0 Bft) W-NW 292 12,4 C 21,3 C
04.09.2012 20:01 21,1 C 57 % 1019,6 hPa 0,0 l/m 0,0 km/h (0 Bft) W-NW 292 12,2 C 21,1 C
04.09.2012 20:01 21,1 C 57 % 1019,6 hPa 0,0 l/m 0,0 km/h (0 Bft) W-NW 292 12,2 C 21,1 C
04.09.2012 20:06 20,9 C 58 % 1019,5 hPa 0,0 l/m 0,0 km/h (0 Bft) W-NW 292 12,3 C 20,9 C
04.09.2012 20:06 20,9 C 58 % 1019,5 hPa 0,0 l/m 0,0 km/h (0 Bft) W-NW 292 12,3 C 20,9 C
04.09.2012 20:11 20,7 C 58 % 1019,5 hPa 0,0 l/m 0,0 km/h (0 Bft) W-NW 292 12,1 C 20,7 C
04.09.2012 20:11 20,7 C 58 % 1019,5 hPa 0,0 l/m 0,0 km/h (0 Bft) W-NW 292 12,1 C 20,7 C
04.09.2012 20:16 20,4 C 59 % 1019,6 hPa 0,0 l/m 0,0 km/h (0 Bft) W-NW 292 12,1 C 20,4 C
04.09.2012 20:16 20,4 C 59 % 1019,6 hPa 0,0 l/m 0,0 km/h (0 Bft) W-NW 292 12,1 C 20,4 C
04.09.2012 20:21 20,3 C 60 % 1019,5 hPa 0,0 l/m 0,0 km/h (0 Bft) W-NW 292 12,3 C 20,3 C
04.09.2012 20:21 20,3 C 60 % 1019,5 hPa 0,0 l/m 0,0 km/h (0 Bft) W-NW 292 12,3 C 20,3 C
04.09.2012 20:26 20,1 C 61 % 1019,6 hPa 0,0 l/m 0,0 km/h (0 Bft) W-NW 292 12,3 C 20,1 C
04.09.2012 20:26 20,1 C 61 % 1019,6 hPa 0,0 l/m 0,0 km/h (0 Bft) W-NW 292 12,3 C 20,1 C
04.09.2012 20:31 19,9 C 62 % 1019,6 hPa 0,0 l/m 0,0 km/h (0 Bft) W-NW 292 12,4 C 19,9 C
04.09.2012 20:31 19,9 C 62 % 1019,6 hPa 0,0 l/m 0,0 km/h (0 Bft) W-NW 292 12,4 C 19,9 C
04.09.2012 20:36 19,6 C 62 % 1019,7 hPa 0,0 l/m 0,0 km/h (0 Bft) W-NW 292 12,1 C 19,6 C
04.09.2012 20:36 19,6 C 62 % 1019,7 hPa 0,0 l/m 0,0 km/h (0 Bft) W-NW 292 12,1 C 19,6 C
04.09.2012 20:41 19,5 C 62 % 1019,7 hPa 0,0 l/m 0,0 km/h (0 Bft) W-NW 292 12,0 C 19,5 C
04.09.2012 20:41 19,5 C 62 % 1019,7 hPa 0,0 l/m 0,0 km/h (0 Bft) W-NW 292 12,0 C 19,5 C
04.09.2012 20:46 19,3 C 63 % 1019,7 hPa 0,0 l/m 0,0 km/h (0 Bft) W-NW 292 12,1 C 19,3 C
04.09.2012 20:46 19,3 C 63 % 1019,7 hPa 0,0 l/m 0,0 km/h (0 Bft) W-NW 292 12,1 C 19,3 C
04.09.2012 20:51 19,1 C 63 % 1019,8 hPa 0,0 l/m 0,0 km/h (0 Bft) W-NW 292 11,9 C 19,1 C
04.09.2012 20:51 19,1 C 63 % 1019,8 hPa 0,0 l/m 0,0 km/h (0 Bft) W-NW 292 11,9 C 19,1 C
04.09.2012 20:56 18,9 C 64 % 1019,8 hPa 0,0 l/m 0,0 km/h (0 Bft) W-NW 292 11,9 C 18,9 C
04.09.2012 20:56 18,9 C 64 % 1019,8 hPa 0,0 l/m 0,0 km/h (0 Bft) W-NW 292 11,9 C 18,9 C
04.09.2012 21:01 18,6 C 65 % 1019,7 hPa 0,0 l/m 0,0 km/h (0 Bft) W-NW 292 11,9 C 18,6 C
04.09.2012 21:01 18,6 C 65 % 1019,7 hPa 0,0 l/m 0,0 km/h (0 Bft) W-NW 292 11,9 C 18,6 C
04.09.2012 21:06 18,4 C 65 % 1019,8 hPa 0,0 l/m 0,0 km/h (0 Bft) W-NW 292 11,7 C 18,4 C
04.09.2012 21:06 18,4 C 65 % 1019,8 hPa 0,0 l/m 0,0 km/h (0 Bft) W-NW 292 11,7 C 18,4 C
04.09.2012 21:11 18,3 C 66 % 1019,8 hPa 0,0 l/m 0,0 km/h (0 Bft) W-NW 292 11,8 C 18,3 C
04.09.2012 21:11 18,3 C 66 % 1019,8 hPa 0,0 l/m 0,0 km/h (0 Bft) W-NW 292 11,8 C 18,3 C
04.09.2012 21:16 18,1 C 66 % 1019,8 hPa 0,0 l/m 0,0 km/h (0 Bft) W-NW 292 11,6 C 18,1 C
04.09.2012 21:16 18,1 C 66 % 1019,8 hPa 0,0 l/m 0,0 km/h (0 Bft) W-NW 292 11,6 C 18,1 C
04.09.2012 21:21 17,9 C 67 % 1019,8 hPa 0,0 l/m 0,0 km/h (0 Bft) W-NW 292 11,7 C 17,9 C
04.09.2012 21:21 17,9 C 67 % 1019,8 hPa 0,0 l/m 0,0 km/h (0 Bft) W-NW 292 11,7 C 17,9 C
04.09.2012 21:26 17,8 C 68 % 1020,0 hPa 0,0 l/m 0,0 km/h (0 Bft) W-NW 292 11,8 C 17,8 C
04.09.2012 21:26 17,8 C 68 % 1020,0 hPa 0,0 l/m 0,0 km/h (0 Bft) W-NW 292 11,8 C 17,8 C
04.09.2012 21:31 17,8 C 68 % 1019,9 hPa 0,0 l/m 0,0 km/h (0 Bft) W-NW 292 11,8 C 17,8 C
04.09.2012 21:31 17,8 C 68 % 1019,9 hPa 0,0 l/m 0,0 km/h (0 Bft) W-NW 292 11,8 C 17,8 C
04.09.2012 21:36 17,6 C 69 % 1019,9 hPa 0,0 l/m 0,0 km/h (0 Bft) W-NW 292 11,8 C 17,6 C
04.09.2012 21:36 17,6 C 69 % 1019,9 hPa 0,0 l/m 0,0 km/h (0 Bft) W-NW 292 11,8 C 17,6 C
04.09.2012 21:41 17,5 C 70 % 1019,8 hPa 0,0 l/m 0,0 km/h (0 Bft) W-NW 292 12,0 C 17,5 C
04.09.2012 21:41 17,5 C 70 % 1019,8 hPa 0,0 l/m 0,0 km/h (0 Bft) W-NW 292 12,0 C 17,5 C
04.09.2012 21:46 17,4 C 71 % 1019,8 hPa 0,0 l/m 0,0 km/h (0 Bft) W-NW 292 12,1 C 17,4 C
04.09.2012 21:46 17,4 C 71 % 1019,8 hPa 0,0 l/m 0,0 km/h (0 Bft) W-NW 292 12,1 C 17,4 C
04.09.2012 21:51 17,3 C 71 % 1019,8 hPa 0,0 l/m 0,0 km/h (0 Bft) W-NW 292 12,0 C 17,3 C
04.09.2012 21:51 17,3 C 71 % 1019,8 hPa 0,0 l/m 0,0 km/h (0 Bft) W-NW 292 12,0 C 17,3 C
04.09.2012 21:56 17,2 C 71 % 1019,8 hPa 0,0 l/m 0,0 km/h (0 Bft) W-NW 292 11,9 C 17,2 C
04.09.2012 21:56 17,2 C 71 % 1019,8 hPa 0,0 l/m 0,0 km/h (0 Bft) W-NW 292 11,9 C 17,2 C
04.09.2012 22:01 17,1 C 72 % 1019,9 hPa 0,0 l/m 0,0 km/h (0 Bft) W-NW 292 12,0 C 17,1 C
04.09.2012 22:01 17,1 C 72 % 1019,9 hPa 0,0 l/m 0,0 km/h (0 Bft) W-NW 292 12,0 C 17,1 C
04.09.2012 22:06 16,9 C 72 % 1019,8 hPa 0,0 l/m 0,0 km/h (0 Bft) W-NW 292 11,8 C 16,9 C
04.09.2012 22:06 16,9 C 72 % 1019,8 hPa 0,0 l/m 0,0 km/h (0 Bft) W-NW 292 11,8 C 16,9 C
04.09.2012 22:11 16,9 C 72 % 1019,8 hPa 0,0 l/m 0,0 km/h (0 Bft) W-NW 292 11,8 C 16,9 C
04.09.2012 22:11 16,9 C 72 % 1019,8 hPa 0,0 l/m 0,0 km/h (0 Bft) W-NW 292 11,8 C 16,9 C
04.09.2012 22:16 16,8 C 72 % 1019,8 hPa 0,0 l/m 0,0 km/h (0 Bft) W-NW 292 11,7 C 16,8 C
04.09.2012 22:16 16,8 C 72 % 1019,8 hPa 0,0 l/m 0,0 km/h (0 Bft) W-NW 292 11,7 C 16,8 C
04.09.2012 22:21 16,6 C 72 % 1019,8 hPa 0,0 l/m 0,0 km/h (0 Bft) W-NW 292 11,5 C 16,6 C
04.09.2012 22:21 16,6 C 72 % 1019,8 hPa 0,0 l/m 0,0 km/h (0 Bft) W-NW 292 11,5 C 16,6 C
04.09.2012 22:26 16,5 C 73 % 1019,7 hPa 0,0 l/m 0,0 km/h (0 Bft) W-NW 292 11,6 C 16,5 C
04.09.2012 22:26 16,5 C 73 % 1019,7 hPa 0,0 l/m 0,0 km/h (0 Bft) W-NW 292 11,6 C 16,5 C
04.09.2012 22:31 16,4 C 74 % 1019,7 hPa 0,0 l/m 0,0 km/h (0 Bft) W-NW 292 11,8 C 16,4 C
04.09.2012 22:31 16,4 C 74 % 1019,7 hPa 0,0 l/m 0,0 km/h (0 Bft) W-NW 292 11,8 C 16,4 C
04.09.2012 22:36 16,3 C 74 % 1019,7 hPa 0,0 l/m 0,0 km/h (0 Bft) W-NW 292 11,7 C 16,3 C
04.09.2012 22:36 16,3 C 74 % 1019,7 hPa 0,0 l/m 0,0 km/h (0 Bft) W-NW 292 11,7 C 16,3 C
04.09.2012 22:41 16,2 C 74 % 1019,7 hPa 0,0 l/m 0,0 km/h (0 Bft) W-NW 292 11,6 C 16,2 C
04.09.2012 22:41 16,2 C 74 % 1019,7 hPa 0,0 l/m 0,0 km/h (0 Bft) W-NW 292 11,6 C 16,2 C
04.09.2012 22:46 16,1 C 74 % 1019,7 hPa 0,0 l/m 0,0 km/h (0 Bft) W-NW 292 11,5 C 16,1 C
04.09.2012 22:46 16,1 C 74 % 1019,7 hPa 0,0 l/m 0,0 km/h (0 Bft) W-NW 292 11,5 C 16,1 C
04.09.2012 22:51 16,1 C 75 % 1019,7 hPa 0,0 l/m 0,0 km/h (0 Bft) W-NW 292 11,7 C 16,1 C
04.09.2012 22:51 16,1 C 75 % 1019,7 hPa 0,0 l/m 0,0 km/h (0 Bft) W-NW 292 11,7 C 16,1 C
04.09.2012 22:56 15,9 C 75 % 1019,7 hPa 0,0 l/m 0,0 km/h (0 Bft) W-NW 292 11,5 C 15,9 C
04.09.2012 22:56 15,9 C 75 % 1019,7 hPa 0,0 l/m 0,0 km/h (0 Bft) W-NW 292 11,5 C 15,9 C
04.09.2012 23:01 15,9 C 76 % 1019,7 hPa 0,0 l/m 0,0 km/h (0 Bft) W-NW 292 11,7 C 15,9 C
04.09.2012 23:01 15,9 C 76 % 1019,7 hPa 0,0 l/m 0,0 km/h (0 Bft) W-NW 292 11,7 C 15,9 C
04.09.2012 23:06 15,9 C 76 % 1019,7 hPa 0,0 l/m 0,0 km/h (0 Bft) W-NW 292 11,7 C 15,9 C
04.09.2012 23:06 15,9 C 76 % 1019,7 hPa 0,0 l/m 0,0 km/h (0 Bft) W-NW 292 11,7 C 15,9 C
04.09.2012 23:11 15,8 C 76 % 1019,7 hPa 0,0 l/m 0,0 km/h (0 Bft) W-NW 292 11,6 C 15,8 C
04.09.2012 23:11 15,8 C 76 % 1019,7 hPa 0,0 l/m 0,0 km/h (0 Bft) W-NW 292 11,6 C 15,8 C
04.09.2012 23:16 15,8 C 76 % 1019,7 hPa 0,0 l/m 0,0 km/h (0 Bft) W-NW 292 11,6 C 15,8 C
04.09.2012 23:16 15,8 C 76 % 1019,7 hPa 0,0 l/m 0,0 km/h (0 Bft) W-NW 292 11,6 C 15,8 C
04.09.2012 23:21 15,6 C 76 % 1019,8 hPa 0,0 l/m 0,0 km/h (0 Bft) W-NW 292 11,4 C 15,6 C
04.09.2012 23:21 15,6 C 76 % 1019,8 hPa 0,0 l/m 0,0 km/h (0 Bft) W-NW 292 11,4 C 15,6 C
04.09.2012 23:26 15,5 C 77 % 1019,8 hPa 0,0 l/m 0,0 km/h (0 Bft) W-NW 292 11,5 C 15,5 C
04.09.2012 23:26 15,5 C 77 % 1019,8 hPa 0,0 l/m 0,0 km/h (0 Bft) W-NW 292 11,5 C 15,5 C
04.09.2012 23:31 15,4 C 77 % 1020,0 hPa 0,0 l/m 0,0 km/h (0 Bft) W-NW 292 11,4 C 15,4 C
04.09.2012 23:31 15,4 C 77 % 1020,0 hPa 0,0 l/m 0,0 km/h (0 Bft) W-NW 292 11,4 C 15,4 C
04.09.2012 23:36 15,4 C 77 % 1019,8 hPa 0,0 l/m 0,0 km/h (0 Bft) W-NW 292 11,4 C 15,4 C
04.09.2012 23:36 15,4 C 77 % 1019,8 hPa 0,0 l/m 0,0 km/h (0 Bft) W-NW 292 11,4 C 15,4 C
04.09.2012 23:41 15,3 C 77 % 1019,8 hPa 0,0 l/m 0,0 km/h (0 Bft) W-NW 292 11,3 C 15,3 C
04.09.2012 23:41 15,3 C 77 % 1019,8 hPa 0,0 l/m 0,0 km/h (0 Bft) W-NW 292 11,3 C 15,3 C
04.09.2012 23:46 15,2 C 78 % 1019,9 hPa 0,0 l/m 0,0 km/h (0 Bft) W-NW 292 11,4 C 15,2 C
04.09.2012 23:46 15,2 C 78 % 1019,9 hPa 0,0 l/m 0,0 km/h (0 Bft) W-NW 292 11,4 C 15,2 C
04.09.2012 23:51 15,1 C 78 % 1019,7 hPa 0,0 l/m 0,0 km/h (0 Bft) W-NW 292 11,3 C 15,1 C
04.09.2012 23:51 15,1 C 78 % 1019,7 hPa 0,0 l/m 0,0 km/h (0 Bft) W-NW 292 11,3 C 15,1 C
04.09.2012 23:56 15,0 C 78 % 1019,7 hPa 0,0 l/m 0,0 km/h (0 Bft) W-NW 292 11,2 C 15,0 C
04.09.2012 23:56 15,0 C 78 % 1019,7 hPa 0,0 l/m 0,0 km/h (0 Bft) W-NW 292 11,2 C 15,0 C
_ Min-Zeit 06:46 16:46 19:06 - 00:01 - - 01:16 06:46
Minimum _ 12,3 C 45 % 1019,4 hPa - 0,0 km/h (0 Bft) - - 9,9 C 12,3 C
_ Max-Zeit 16:46 07:11 00:46 00:01 17:31 - - 11:06 16:46
Maximum _ 25,8 C 90 % 1024,3 hPa 0,0 l/m 20,9 km/h
W-SW (4 Bft)
- - 13,8 C 25,8 C
Durchschnitt _ 18,1 C 70 % 1022,2 hPa #0,0 l/m 2,7 km/h (1 Bft) W-NW - 12,0 C 18,1 C
(c) by David Heller